Time;durP1;ratioP1;P1;durP2;ratioP2;P2;SDS_P1;SDS_P2;PMS_P1;PMS_P2;Temp;Humidity;BMP_temperature;BMP_pressure;BME280_temperature;BME280_humidity;BME280_pressure;Samples;Min_cycle;Max_cycle;Signal;HPM_P1;HPM_P2
2024/02/12 00:01:19;;;;;;;71.07;30.20;;;8.30;99.90;;;;;;5070138;28;20024;-57
2024/02/12 00:03:44;;;;;;;59.88;27.95;;;8.30;99.90;;;;;;5066407;28;20119;-57
2024/02/12 00:06:10;;;;;;;52.33;26.48;;;8.30;99.90;;;;;;5069122;28;20099;-57
2024/02/12 00:08:36;;;;;;;49.22;25.27;;;8.30;99.90;;;;;;5069110;28;20544;-57
2024/02/12 00:11:02;;;;;;;60.20;28.52;;;8.30;99.90;;;;;;5067910;28;20464;-57
2024/02/12 00:13:28;;;;;;;59.80;27.90;;;8.30;99.90;;;;;;5068155;28;20036;-57
2024/02/12 00:15:53;;;;;;;59.67;26.80;;;8.30;99.90;;;;;;5069418;28;20074;-57
2024/02/12 00:18:23;;;;;;;55.97;28.40;;;8.30;99.90;;;;;;5069327;28;20029;-57
2024/02/12 00:20:49;;;;;;;63.67;28.65;;;8.30;99.90;;;;;;5068779;28;20052;-57
2024/02/12 00:23:14;;;;;;;72.20;29.77;;;8.30;99.90;;;;;;5069156;28;20055;-57
2024/02/12 00:25:40;;;;;;;55.75;27.20;;;8.30;99.90;;;;;;5067458;28;20012;-57
2024/02/12 00:28:07;;;;;;;70.63;29.83;;;8.30;99.90;;;;;;5067680;28;20028;-57
2024/02/12 00:30:35;;;;;;;57.97;29.17;;;8.20;99.90;;;;;;5060413;28;20015;-57
2024/02/12 00:33:03;;;;;;;64.57;30.58;;;8.20;99.90;;;;;;5066902;28;20029;-57
2024/02/12 00:35:29;;;;;;;64.50;29.35;;;8.20;99.90;;;;;;5068909;28;20052;-57
2024/02/12 00:37:55;;;;;;;66.55;30.95;;;8.30;99.90;;;;;;5067103;28;20731;-57
2024/02/12 00:40:21;;;;;;;59.47;28.52;;;8.30;99.90;;;;;;5066914;28;20045;-58
2024/02/12 00:42:48;;;;;;;75.53;32.22;;;8.30;99.90;;;;;;5069304;28;20104;-58
2024/02/12 00:45:14;;;;;;;61.00;30.30;;;8.30;99.90;;;;;;5067946;28;20024;-58
2024/02/12 00:47:40;;;;;;;64.90;30.83;;;8.30;99.90;;;;;;5068195;28;20505;-58
2024/02/12 00:50:06;;;;;;;64.32;32.05;;;8.20;99.90;;;;;;5068611;28;20024;-57
2024/02/12 00:52:37;;;;;;;60.63;28.33;;;8.20;99.90;;;;;;5059688;28;20569;-57
2024/02/12 00:55:03;;;;;;;;;;;8.30;99.90;;;;;;5068268;28;20036;-58
2024/02/12 00:57:30;;;;;;;59.03;30.05;;;8.20;99.90;;;;;;5068580;28;19984;-57
2024/02/12 00:59:57;;;;;;;64.88;28.80;;;8.20;99.90;;;;;;5069112;28;20017;-57
2024/02/12 01:02:22;;;;;;;57.13;29.77;;;8.20;99.90;;;;;;5068086;28;20028;-57
2024/02/12 01:04:48;;;;;;;56.08;29.13;;;8.20;99.90;;;;;;5068068;28;20032;-57
2024/02/12 01:07:14;;;;;;;58.22;28.20;;;8.20;99.90;;;;;;5068784;28;20021;-57
2024/02/12 01:09:40;;;;;;;63.40;29.02;;;8.20;99.90;;;;;;5067602;28;20103;-57
2024/02/12 01:12:05;;;;;;;57.95;28.67;;;8.20;99.90;;;;;;5068064;28;20155;-57
2024/02/12 01:14:31;;;;;;;58.47;29.05;;;8.20;99.90;;;;;;5067192;28;20237;-57
2024/02/12 01:16:56;;;;;;;54.25;27.88;;;8.20;99.90;;;;;;5067601;28;20523;-57
2024/02/12 01:19:23;;;;;;;63.75;29.98;;;8.20;99.90;;;;;;5069274;28;20040;-57
2024/02/12 01:21:49;;;;;;;64.55;28.90;;;8.20;99.90;;;;;;5070309;28;20028;-57
2024/02/12 01:24:15;;;;;;;58.03;29.15;;;8.20;99.90;;;;;;5070383;28;20024;-57
2024/02/12 01:26:41;;;;;;;60.53;28.00;;;8.20;99.90;;;;;;5070840;28;20074;-57
2024/02/12 01:29:07;;;;;;;54.10;28.63;;;8.20;99.90;;;;;;5070873;28;20458;-57
2024/02/12 01:31:36;;;;;;;80.65;34.08;;;8.20;99.90;;;;;;5063029;28;20078;-57
2024/02/12 01:34:03;;;;;;;68.10;33.38;;;8.20;99.90;;;;;;5070532;28;20031;-57
2024/02/12 01:36:28;;;;;;;62.75;32.25;;;8.20;99.90;;;;;;5070316;28;20016;-58
2024/02/12 01:38:54;;;;;;;73.20;34.75;;;8.20;99.90;;;;;;5068857;28;20024;-57
2024/02/12 01:41:19;;;;;;;70.28;32.65;;;8.20;99.90;;;;;;5070329;28;20029;-57
2024/02/12 01:43:45;;;;;;;78.35;33.53;;;8.20;99.90;;;;;;5068729;28;20034;-57
2024/02/12 01:46:10;;;;;;;67.70;32.70;;;8.10;99.90;;;;;;5070373;28;20056;-58
2024/02/12 01:48:37;;;;;;;69.68;32.80;;;8.20;99.90;;;;;;5070211;28;20451;-57
2024/02/12 01:51:07;;;;;;;74.97;33.80;;;8.10;99.90;;;;;;5069980;28;20028;-57
2024/02/12 01:53:37;;;;;;;84.00;33.55;;;8.20;99.90;;;;;;5069698;28;20065;-58
2024/02/12 01:56:10;;;;;;;46.20;24.15;;;8.10;99.90;;;;;;5070267;28;20111;-57
2024/02/12 01:58:43;;;;;;;67.70;29.00;;;8.10;99.90;;;;;;5070119;28;20043;-58
2024/02/12 02:01:14;;;;;;;63.78;29.45;;;8.10;99.90;;;;;;5069768;28;20020;-57
2024/02/12 02:03:43;;;;;;;59.47;27.13;;;8.10;99.90;;;;;;5069481;28;20024;-57
2024/02/12 02:06:12;;;;;;;53.95;27.75;;;8.10;99.90;;;;;;5069683;28;20434;-57
2024/02/12 02:08:39;;;;;;;59.40;27.33;;;8.10;99.90;;;;;;5069857;28;20424;-58
2024/02/12 02:11:09;;;;;;;50.47;25.50;;;8.10;99.90;;;;;;5077192;28;20081;-58
2024/02/12 02:13:44;;;;;;;52.93;26.10;;;8.10;99.90;;;;;;5085693;28;20013;-57
2024/02/12 02:16:11;;;;;;;49.92;23.38;;;8.10;99.90;;;;;;5080713;28;20369;-57
2024/02/12 02:18:37;;;;;;;56.88;25.58;;;8.00;99.90;;;;;;5073674;28;20027;-57
2024/02/12 02:21:03;;;;;;;49.75;24.23;;;8.00;99.90;;;;;;5069674;28;20390;-58
2024/02/12 02:23:29;;;;;;;47.05;23.70;;;8.00;99.90;;;;;;5067043;28;20032;-57
2024/02/12 02:25:58;;;;;;;51.40;23.73;;;8.00;99.90;;;;;;5075998;28;20024;-57
2024/02/12 02:28:25;;;;;;;48.50;22.20;;;8.00;99.90;;;;;;5088976;28;20039;-58
2024/02/12 02:30:54;;;;;;;46.38;22.50;;;8.00;99.90;;;;;;5073292;28;20024;-57
2024/02/12 02:33:20;;;;;;;44.17;21.15;;;8.00;99.90;;;;;;5078455;28;20381;-58
2024/02/12 02:35:46;;;;;;;39.55;18.98;;;8.00;99.90;;;;;;5089377;28;20027;-58
2024/02/12 02:38:12;;;;;;;39.17;20.55;;;8.00;99.90;;;;;;5086868;28;20024;-58
2024/02/12 02:40:38;;;;;;;35.42;18.40;;;8.00;99.90;;;;;;5076750;28;20028;-58
2024/02/12 02:43:04;;;;;;;49.47;20.30;;;8.00;99.90;;;;;;5068641;28;20039;-58
2024/02/12 02:45:30;;;;;;;36.45;19.48;;;8.00;99.90;;;;;;5077939;28;20042;-58
2024/02/12 02:47:56;;;;;;;36.78;18.95;;;8.00;99.90;;;;;;5080481;28;20040;-58
2024/02/12 02:50:22;;;;;;;42.70;19.63;;;7.90;99.90;;;;;;5068245;28;20074;-57
2024/02/12 02:52:48;;;;;;;43.72;20.85;;;7.90;99.90;;;;;;5070016;28;20079;-57
2024/02/12 02:55:16;;;;;;;38.22;19.15;;;7.90;99.90;;;;;;5083947;28;20473;-58
2024/02/12 02:57:44;;;;;;;41.25;19.83;;;7.90;99.90;;;;;;5071508;28;20021;-58
2024/02/12 03:00:11;;;;;;;37.85;20.13;;;7.90;99.90;;;;;;5071929;28;20024;-58
2024/02/12 03:02:36;;;;;;;34.80;18.23;;;7.90;99.90;;;;;;5076614;28;20455;-58
2024/02/12 03:05:03;;;;;;;46.17;20.13;;;7.90;99.90;;;;;;5082847;28;20095;-58
2024/02/12 03:07:29;;;;;;;36.75;18.60;;;7.90;99.90;;;;;;5071284;28;20281;-58
2024/02/12 03:09:55;;;;;;;41.10;17.98;;;7.90;99.90;;;;;;5073945;28;20470;-58
2024/02/12 03:12:21;;;;;;;37.80;18.02;;;7.90;99.90;;;;;;5083740;28;20024;-58
2024/02/12 03:14:47;;;;;;;37.47;18.40;;;7.90;99.90;;;;;;5080550;28;20012;-58
2024/02/12 03:17:12;;;;;;;39.35;19.77;;;7.90;99.90;;;;;;5078594;28;20027;-58
2024/02/12 03:19:39;;;;;;;43.83;19.35;;;7.90;99.90;;;;;;5075365;28;20032;-58
2024/02/12 03:22:06;;;;;;;35.72;18.25;;;7.90;99.90;;;;;;5075326;28;20474;-58
2024/02/12 03:24:31;;;;;;;42.40;19.13;;;7.90;99.90;;;;;;5082890;28;20048;-57
2024/02/12 03:26:58;;;;;;;43.55;19.65;;;7.90;99.90;;;;;;5081348;28;20469;-58
2024/02/12 03:29:23;;;;;;;40.45;19.55;;;7.90;99.90;;;;;;5070248;28;20028;-58
2024/02/12 03:31:49;;;;;;;39.95;18.92;;;7.90;99.90;;;;;;5075200;28;20035;-58
2024/02/12 03:34:14;;;;;;;31.90;17.42;;;7.90;99.90;;;;;;5074817;28;20031;-58
2024/02/12 03:36:41;;;;;;;28.52;16.17;;;7.90;99.90;;;;;;5076343;28;20024;-58
2024/02/12 03:39:08;;;;;;;37.33;18.38;;;8.00;99.90;;;;;;5074155;28;20035;-58
2024/02/12 03:41:34;;;;;;;28.50;15.93;;;7.90;99.90;;;;;;5073992;28;20226;-58
2024/02/12 03:43:59;;;;;;;36.17;18.98;;;7.90;99.90;;;;;;5074066;28;20044;-58
2024/02/12 03:46:31;;;;;;;43.58;18.92;;;8.00;99.90;;;;;;5082148;28;20020;-58
2024/02/12 03:59:56;;;;;;;26.55;15.90;;;8.00;99.90;;;;;;5066927;28;20310;-58
2024/02/12 04:02:23;;;;;;;28.45;16.75;;;7.90;99.90;;;;;;5070143;28;20021;-58
2024/02/12 04:04:49;;;;;;;30.95;15.65;;;7.90;99.90;;;;;;5077791;28;20052;-58
2024/02/12 04:07:15;;;;;;;31.52;16.98;;;7.90;99.90;;;;;;5070350;28;20119;-58
2024/02/12 04:09:42;;;;;;;32.70;16.83;;;8.00;99.90;;;;;;5085112;28;20024;-58
2024/02/12 04:12:11;;;;;;;37.80;18.50;;;7.90;99.90;;;;;;5071139;28;20059;-58
2024/02/12 04:14:40;;;;;;;28.48;15.95;;;7.90;99.90;;;;;;5069662;28;20119;-58
2024/02/12 04:17:06;;;;;;;33.05;16.48;;;7.90;99.90;;;;;;5078344;28;20009;-58
2024/02/12 04:19:32;;;;;;;34.28;16.75;;;7.90;99.90;;;;;;5076253;28;20103;-57
2024/02/12 04:21:58;;;;;;;35.47;16.92;;;7.90;99.90;;;;;;5085055;28;20108;-57
2024/02/12 04:24:29;;;;;;;31.42;15.63;;;7.90;99.90;;;;;;5081902;28;20090;-57
2024/02/12 04:26:55;;;;;;;33.58;16.90;;;7.90;99.90;;;;;;5072484;28;20081;-58
2024/02/12 04:29:21;;;;;;;37.05;16.83;;;7.90;99.90;;;;;;5076166;28;20203;-58
2024/02/12 04:31:48;;;;;;;35.80;15.55;;;7.90;99.90;;;;;;5078021;28;20354;-57
2024/02/12 04:34:14;;;;;;;39.38;18.00;;;8.00;99.90;;;;;;5076923;28;20020;-58
2024/02/12 04:36:40;;;;;;;30.77;15.68;;;7.90;99.90;;;;;;5075761;28;20020;-58
2024/02/12 04:39:07;;;;;;;30.75;15.35;;;7.90;99.90;;;;;;5068207;28;20024;-58
2024/02/12 04:41:41;;;;;;;36.03;16.48;;;8.00;99.90;;;;;;5081408;28;20549;-58
2024/02/12 04:44:07;;;;;;;26.45;14.55;;;7.90;99.90;;;;;;5069966;28;20024;-57
2024/02/12 04:46:36;;;;;;;29.70;15.32;;;8.00;99.90;;;;;;5068674;28;20024;-57
2024/02/12 04:49:05;;;;;;;27.75;14.18;;;8.00;99.90;;;;;;5067338;28;20033;-57
2024/02/12 04:51:31;;;;;;;32.00;15.57;;;8.00;99.90;;;;;;5066661;28;20478;-57
2024/02/12 04:54:00;;;;;;;31.08;14.38;;;8.00;99.90;;;;;;5069155;28;20408;-58
2024/02/12 04:56:26;;;;;;;25.35;13.70;;;8.00;99.90;;;;;;5070664;28;20020;-57
2024/02/12 04:58:52;;;;;;;28.25;14.90;;;8.00;99.90;;;;;;5077465;28;20032;-57
2024/02/12 05:01:18;;;;;;;26.60;13.63;;;8.00;99.90;;;;;;5071275;28;20098;-58
2024/02/12 05:03:46;;;;;;;24.10;14.02;;;8.00;99.90;;;;;;5073578;28;20028;-58
2024/02/12 05:06:16;;;;;;;24.92;14.50;;;8.00;99.90;;;;;;5086716;28;20036;-57
2024/02/12 05:08:41;;;;;;;28.95;14.70;;;8.00;99.90;;;;;;5079582;28;20422;-58
2024/02/12 05:11:07;;;;;;;23.90;14.18;;;8.00;99.90;;;;;;5073463;28;20085;-57
2024/02/12 05:13:33;;;;;;;27.27;14.43;;;8.00;99.90;;;;;;5072670;28;20033;-57
2024/02/12 05:15:59;;;;;;;30.38;14.70;;;8.00;99.90;;;;;;5074125;28;20074;-57
2024/02/12 05:23:58;;;;;;;27.27;15.45;;;8.00;99.90;;;;;;5060649;28;20040;-57
2024/02/12 05:26:24;;;;;;;28.25;15.13;;;8.00;99.90;;;;;;5077659;28;20016;-57
2024/02/12 05:28:50;;;;;;;32.67;15.95;;;8.00;99.90;;;;;;5070290;28;20029;-57
2024/02/12 05:31:17;;;;;;;35.83;16.10;;;8.00;99.90;;;;;;5070106;28;20025;-57
2024/02/12 05:33:42;;;;;;;27.50;15.77;;;8.00;99.90;;;;;;5077551;28;20466;-57
2024/02/12 05:36:09;;;;;;;29.10;16.33;;;8.00;99.90;;;;;;5079867;28;20124;-57
2024/02/12 05:38:39;;;;;;;28.48;15.15;;;8.00;99.90;;;;;;5079439;28;20481;-57
2024/02/12 05:41:04;;;;;;;30.27;17.17;;;7.90;99.90;;;;;;5068726;28;20021;-57
2024/02/12 05:43:30;;;;;;;40.60;16.60;;;8.00;99.90;;;;;;5072372;28;20390;-57
2024/02/12 05:45:55;;;;;;;33.72;17.45;;;8.00;99.90;;;;;;5075302;28;20289;-57
2024/02/12 05:48:21;;;;;;;35.20;16.45;;;7.90;99.90;;;;;;5071150;28;20032;-57
2024/02/12 05:50:48;;;;;;;37.60;19.27;;;8.00;99.90;;;;;;5075874;28;20457;-57
2024/02/12 05:53:14;;;;;;;32.67;18.40;;;8.00;99.90;;;;;;5075865;28;20021;-57
2024/02/12 05:55:40;;;;;;;33.55;18.05;;;8.00;99.90;;;;;;5084101;28;20021;-57
2024/02/12 05:58:09;;;;;;;36.53;18.00;;;8.00;99.90;;;;;;5078001;28;20028;-56
2024/02/12 06:00:35;;;;;;;33.92;17.55;;;7.90;99.90;;;;;;5076964;28;20031;-57
2024/02/12 06:03:01;;;;;;;39.60;18.90;;;7.90;99.90;;;;;;5078551;28;20178;-57
2024/02/12 06:05:27;;;;;;;28.95;16.55;;;7.90;99.90;;;;;;5069084;28;20115;-57
2024/02/12 06:07:52;;;;;;;39.88;19.75;;;8.00;99.90;;;;;;5074871;28;20029;-57
2024/02/12 06:10:18;;;;;;;31.52;16.58;;;8.00;99.90;;;;;;5073873;28;20064;-57
2024/02/12 06:12:44;;;;;;;41.17;19.45;;;8.00;99.90;;;;;;5072511;28;20087;-57
2024/02/12 06:15:10;;;;;;;37.08;20.88;;;7.90;99.90;;;;;;5074955;28;20108;-56
2024/02/12 06:17:36;;;;;;;40.25;19.20;;;7.90;99.90;;;;;;5080929;28;20020;-57
2024/02/12 06:20:05;;;;;;;42.40;19.33;;;8.00;99.90;;;;;;5074422;28;20022;-57
2024/02/12 06:22:31;;;;;;;35.58;19.55;;;7.90;99.90;;;;;;5081523;28;20016;-57
2024/02/12 06:24:57;;;;;;;41.03;20.73;;;7.90;99.90;;;;;;5073348;28;20168;-57
2024/02/12 06:27:23;;;;;;;37.22;19.48;;;8.00;99.90;;;;;;5070139;28;20033;-57
2024/02/12 06:29:48;;;;;;;40.65;20.75;;;8.00;99.90;;;;;;5069797;28;20024;-57
2024/02/12 06:32:15;;;;;;;40.90;21.17;;;8.00;99.90;;;;;;5069267;28;20098;-57
2024/02/12 06:34:47;;;;;;;38.05;20.88;;;8.00;99.90;;;;;;5068837;28;20009;-57
2024/02/12 06:37:13;;;;;;;47.65;21.05;;;7.90;99.90;;;;;;5067926;28;20020;-57
2024/02/12 06:39:39;;;;;;;43.67;21.55;;;7.90;99.90;;;;;;5068302;28;20551;-57
2024/02/12 06:42:05;;;;;;;50.83;25.05;;;7.90;99.90;;;;;;5068312;28;20081;-57
2024/02/12 06:44:32;;;;;;;52.30;23.80;;;7.90;99.90;;;;;;5066978;28;20044;-56
2024/02/12 06:47:00;;;;;;;47.78;22.70;;;7.90;99.90;;;;;;5078958;28;20111;-57
2024/02/12 06:49:26;;;;;;;47.25;23.80;;;7.90;99.90;;;;;;5073640;28;20016;-57
2024/02/12 06:51:52;;;;;;;57.17;24.27;;;7.90;99.90;;;;;;5077168;28;20024;-57
2024/02/12 06:54:20;;;;;;;35.88;20.02;;;7.90;99.90;;;;;;5075688;28;20019;-57
2024/02/12 06:56:46;;;;;;;37.75;20.85;;;7.90;99.90;;;;;;5071382;28;20024;-57
2024/02/12 06:59:11;;;;;;;39.80;21.80;;;7.90;99.90;;;;;;5076929;28;20017;-57
2024/02/12 07:01:38;;;;;;;49.00;23.52;;;7.90;99.90;;;;;;5076005;28;20176;-56
2024/02/12 07:04:04;;;;;;;47.92;23.05;;;7.90;99.90;;;;;;5068745;28;20020;-56
2024/02/12 07:06:29;;;;;;;41.78;22.45;;;7.90;99.90;;;;;;5079444;28;20112;-57
2024/02/12 07:08:56;;;;;;;43.00;23.75;;;7.90;99.90;;;;;;5077409;28;20094;-56
2024/02/12 07:11:22;;;;;;;48.30;21.63;;;7.90;99.90;;;;;;5075171;28;20029;-56
2024/02/12 07:13:48;;;;;;;56.38;25.40;;;7.90;99.90;;;;;;5077122;28;20101;-55
2024/02/12 07:16:18;;;;;;;53.05;23.45;;;7.90;99.90;;;;;;5073600;28;20147;-56
2024/02/12 07:18:46;;;;;;;44.15;22.17;;;7.90;99.90;;;;;;5078875;28;20012;-56
2024/02/12 07:21:13;;;;;;;55.00;26.48;;;7.90;99.90;;;;;;5078761;28;20028;-56
2024/02/12 07:23:39;;;;;;;52.45;24.70;;;8.00;99.90;;;;;;5074756;28;20017;-56
2024/02/12 07:26:06;;;;;;;44.80;24.38;;;8.00;99.90;;;;;;5082038;28;20024;-56
2024/02/12 07:28:31;;;;;;;42.25;22.25;;;8.00;99.90;;;;;;5072983;28;20020;-56
2024/02/12 07:30:57;;;;;;;59.42;26.35;;;8.00;99.90;;;;;;5073055;28;20500;-56
2024/02/12 07:33:22;;;;;;;47.40;23.08;;;8.00;99.90;;;;;;5067795;28;20702;-56
2024/02/12 07:35:48;;;;;;;56.13;27.40;;;8.00;99.90;;;;;;5071578;28;20032;-56
2024/02/12 07:38:13;;;;;;;62.88;24.10;;;8.00;99.90;;;;;;5073355;28;20225;-57
2024/02/12 07:40:39;;;;;;;48.58;22.90;;;8.10;99.90;;;;;;5074162;28;20089;-57
2024/02/12 07:43:05;;;;;;;52.63;24.00;;;8.10;99.90;;;;;;5071459;28;20474;-57
2024/02/12 07:45:33;;;;;;;50.53;21.92;;;8.10;99.90;;;;;;5071422;28;20024;-56
2024/02/12 07:47:59;;;;;;;49.60;23.85;;;8.10;99.90;;;;;;5063312;28;20020;-56
2024/02/12 07:50:24;;;;;;;48.20;24.05;;;8.10;99.90;;;;;;5071363;28;20030;-56
2024/02/12 07:52:51;;;;;;;44.95;23.05;;;8.10;99.90;;;;;;5070206;28;20486;-56
2024/02/12 07:55:19;;;;;;;47.70;22.95;;;8.10;99.90;;;;;;5069572;28;20021;-56
2024/02/12 07:57:48;;;;;;;56.38;24.40;;;8.20;99.90;;;;;;5078985;28;20016;-56
2024/02/12 08:00:15;;;;;;;53.35;25.10;;;8.20;99.90;;;;;;5075149;28;20009;-56
2024/02/12 08:02:44;;;;;;;53.13;26.40;;;8.10;99.90;;;;;;5073706;28;20442;-56
2024/02/12 08:05:11;;;;;;;53.30;24.02;;;8.10;99.90;;;;;;5075120;28;20051;-56
2024/02/12 08:07:36;;;;;;;48.63;25.02;;;8.10;99.90;;;;;;5067371;28;20019;-56
2024/02/12 08:10:03;;;;;;;48.92;24.60;;;8.10;99.90;;;;;;5076164;28;20473;-57
2024/02/12 08:12:30;;;;;;;52.33;26.05;;;8.10;99.90;;;;;;5072967;28;20483;-56
2024/02/12 08:14:55;;;;;;;50.75;24.67;;;8.10;99.90;;;;;;5074854;28;20024;-57
2024/02/12 08:17:24;;;;;;;47.65;25.42;;;8.20;99.90;;;;;;5072343;28;20020;-56
2024/02/12 08:19:50;;;;;;;53.38;25.92;;;8.30;99.90;;;;;;5072028;28;20060;-56
2024/02/12 08:22:15;;;;;;;45.90;24.38;;;8.30;99.90;;;;;;5072056;28;20021;-57
2024/02/12 08:24:42;;;;;;;49.47;25.10;;;8.40;99.90;;;;;;5076198;28;20029;-56
2024/02/12 08:27:08;;;;;;;42.00;23.77;;;8.50;99.90;;;;;;5070638;28;20067;-57
2024/02/12 08:29:33;;;;;;;46.78;23.10;;;8.50;99.90;;;;;;5079229;28;20044;-57
2024/02/12 08:31:59;;;;;;;57.85;25.92;;;8.60;99.90;;;;;;5083963;28;20549;-56
2024/02/12 08:34:25;;;;;;;49.50;24.52;;;8.60;99.90;;;;;;5071106;28;20143;-56
2024/02/12 08:36:50;;;;;;;52.85;24.58;;;8.70;99.90;;;;;;5080474;28;20013;-57
2024/02/12 08:39:20;;;;;;;45.78;23.73;;;8.70;99.90;;;;;;5075428;28;20426;-56
2024/02/12 08:41:46;;;;;;;47.38;22.60;;;8.70;99.90;;;;;;5070906;28;20020;-56
2024/02/12 08:44:12;;;;;;;46.33;23.13;;;8.80;99.90;;;;;;5071123;28;20056;-56
2024/02/12 08:46:37;;;;;;;39.65;22.50;;;8.70;99.90;;;;;;5071296;28;20021;-57
2024/02/12 08:49:04;;;;;;;41.47;22.00;;;8.80;99.90;;;;;;5079839;28;20024;-57
2024/02/12 08:51:29;;;;;;;42.17;22.92;;;8.80;99.90;;;;;;5075535;28;20477;-56
2024/02/12 08:53:56;;;;;;;35.40;19.98;;;8.90;99.90;;;;;;5073352;28;20036;-56
2024/02/12 08:56:22;;;;;;;48.05;23.02;;;8.90;99.90;;;;;;5081885;28;20028;-56
2024/02/12 08:58:48;;;;;;;40.80;22.17;;;8.80;99.90;;;;;;5076818;28;20385;-56
2024/02/12 09:01:17;;;;;;;46.35;24.90;;;8.80;99.90;;;;;;5077943;28;20077;-56
2024/02/12 09:03:43;;;;;;;45.63;22.65;;;8.80;99.90;;;;;;5074485;28;20017;-56
2024/02/12 09:06:12;;;;;;;43.28;22.15;;;8.80;99.90;;;;;;5075159;28;20040;-56
2024/02/12 09:08:42;;;;;;;40.40;22.75;;;8.90;99.90;;;;;;5075310;28;20454;-57
2024/02/12 09:11:08;;;;;;;43.25;21.65;;;8.90;99.90;;;;;;5078397;28;20485;-57
2024/02/12 09:13:34;;;;;;;39.17;20.73;;;9.00;99.90;;;;;;5070511;28;20025;-57
2024/02/12 09:15:59;;;;;;;37.97;20.80;;;9.10;99.90;;;;;;5074407;28;20485;-56
2024/02/12 09:18:29;;;;;;;38.60;21.23;;;9.30;99.90;;;;;;5078526;28;20695;-57
2024/02/12 09:20:56;;;;;;;39.30;20.65;;;9.50;99.90;;;;;;5074317;28;20024;-56
2024/02/12 09:23:22;;;;;;;41.20;21.40;;;9.60;99.90;;;;;;5076784;28;20027;-57
2024/02/12 09:25:51;;;;;;;38.67;20.40;;;9.60;99.90;;;;;;5074029;28;20036;-56
2024/02/12 09:28:17;;;;;;;31.60;19.23;;;9.60;99.90;;;;;;5080416;28;20522;-56
2024/02/12 09:30:47;;;;;;;35.08;19.92;;;9.60;99.90;;;;;;5074467;28;20116;-57
2024/02/12 09:33:14;;;;;;;36.53;19.85;;;9.60;99.90;;;;;;5076434;28;20023;-57
2024/02/12 09:35:41;;;;;;;35.42;19.38;;;9.60;99.90;;;;;;5074212;28;20453;-57
2024/02/12 09:38:11;;;;;;;31.23;17.88;;;9.50;99.90;;;;;;5079027;28;20540;-56
2024/02/12 09:40:36;;;;;;;34.55;18.23;;;9.50;99.90;;;;;;5072317;28;20526;-56
2024/02/12 09:43:02;;;;;;;32.03;17.92;;;9.40;99.90;;;;;;5071158;28;20024;-57
2024/02/12 09:45:29;;;;;;;32.60;17.05;;;9.40;99.90;;;;;;5070143;28;20114;-57
2024/02/12 09:47:55;;;;;;;34.08;18.60;;;9.30;99.90;;;;;;5069388;28;20105;-56
2024/02/12 09:50:28;;;;;;;32.58;17.20;;;9.20;99.90;;;;;;5068146;28;20485;-57
2024/02/12 09:52:58;;;;;;;34.58;17.75;;;9.20;99.90;;;;;;5075098;28;20056;-56
2024/02/12 09:55:25;;;;;;;32.33;18.88;;;9.20;99.90;;;;;;5073137;28;20019;-56
2024/02/12 09:57:53;;;;;;;29.23;16.35;;;9.10;99.90;;;;;;5074017;28;20569;-57
2024/02/12 10:00:19;;;;;;;32.10;17.85;;;9.20;99.90;;;;;;5073284;28;20106;-57
2024/02/12 10:02:46;;;;;;;34.85;18.05;;;9.20;99.90;;;;;;5069102;28;20481;-57
2024/02/12 10:05:20;;;;;;;32.30;17.75;;;9.20;99.90;;;;;;5069042;28;20192;-57
2024/02/12 10:07:46;;;;;;;25.17;15.43;;;9.30;99.90;;;;;;5068389;28;20442;-57
2024/02/12 10:10:13;;;;;;;31.00;17.40;;;9.40;99.90;;;;;;5079711;28;20023;-58
2024/02/12 10:12:39;;;;;;;28.40;16.20;;;9.40;99.90;;;;;;5076231;28;20025;-56
2024/02/12 10:15:05;;;;;;;27.75;16.20;;;9.50;99.90;;;;;;5075246;28;20019;-57
2024/02/12 10:17:31;;;;;;;31.50;16.17;;;9.60;99.90;;;;;;5074627;28;20025;-56
2024/02/12 10:19:57;;;;;;;24.77;15.07;;;9.80;99.90;;;;;;5077531;28;20112;-57
2024/02/12 10:22:23;;;;;;;24.08;14.25;;;9.80;99.90;;;;;;5077263;28;20380;-57
2024/02/12 10:24:49;;;;;;;22.23;14.43;;;9.80;99.90;;;;;;5075135;28;20097;-56
2024/02/12 10:27:15;;;;;;;23.98;15.07;;;9.80;99.90;;;;;;5068554;28;20107;-57
2024/02/12 10:29:41;;;;;;;21.50;14.20;;;9.70;99.90;;;;;;5069042;28;20028;-57
2024/02/12 10:32:07;;;;;;;21.17;12.77;;;9.80;99.90;;;;;;5074863;28;20027;-56
2024/02/12 10:34:37;;;;;;;27.20;14.80;;;9.80;99.90;;;;;;5068547;28;20016;-57
2024/02/12 10:37:05;;;;;;;26.88;15.90;;;9.80;99.90;;;;;;5071205;28;20040;-57
2024/02/12 10:39:31;;;;;;;27.92;14.63;;;9.80;99.90;;;;;;5075322;28;20513;-58
2024/02/12 10:42:03;;;;;;;25.58;16.02;;;9.70;99.90;;;;;;5069011;28;20020;-56
2024/02/12 10:44:31;;;;;;;29.75;15.07;;;9.70;99.90;;;;;;5075404;28;20518;-57
2024/02/12 10:46:57;;;;;;;29.67;16.48;;;9.60;99.90;;;;;;5074669;28;20055;-57
2024/02/12 10:49:24;;;;;;;27.27;15.48;;;9.60;99.90;;;;;;5074585;28;20055;-57
2024/02/12 10:51:56;;;;;;;28.02;16.77;;;9.60;99.90;;;;;;5068485;28;20029;-57
2024/02/12 10:54:26;;;;;;;30.73;17.42;;;9.60;99.90;;;;;;5073473;28;20024;-57
2024/02/12 10:56:51;;;;;;;23.58;14.55;;;9.60;99.90;;;;;;5071791;28;20099;-57
2024/02/12 10:59:17;;;;;;;31.38;16.10;;;9.70;99.90;;;;;;5074133;28;20104;-57
2024/02/12 11:01:44;;;;;;;25.20;14.45;;;9.70;99.90;;;;;;5070457;28;20029;-57
2024/02/12 11:04:16;;;;;;;24.98;16.33;;;9.80;99.90;;;;;;5073930;28;20081;-57
2024/02/12 11:06:42;;;;;;;27.63;16.30;;;10.00;99.90;;;;;;5068484;28;20052;-57
2024/02/12 11:09:12;;;;;;;23.73;13.98;;;10.50;99.90;;;;;;5069435;28;20056;-57
2024/02/12 11:11:47;;;;;;;22.13;14.23;;;10.80;99.90;;;;;;5065915;28;20037;-57
2024/02/12 11:14:18;;;;;;;25.17;14.70;;;11.20;99.90;;;;;;5075908;28;20032;-57
2024/02/12 11:16:44;;;;;;;23.15;13.77;;;11.40;99.90;;;;;;5071165;28;20349;-57
2024/02/12 11:19:16;;;;;;;21.75;14.18;;;11.50;99.90;;;;;;5073461;28;20024;-57
2024/02/12 11:21:42;;;;;;;21.55;13.45;;;11.50;99.90;;;;;;5068310;28;20505;-57
2024/02/12 11:24:09;;;;;;;23.00;13.43;;;11.40;99.90;;;;;;5069002;28;20028;-57
2024/02/12 11:26:43;;;;;;;23.02;14.73;;;11.20;99.90;;;;;;5063093;28;20095;-57
2024/02/12 11:29:13;;;;;;;21.25;12.98;;;11.10;99.90;;;;;;5066510;28;20552;-57
2024/02/12 11:31:40;;;;;;;23.15;13.60;;;11.00;99.90;;;;;;5070675;28;20549;-56
2024/02/12 11:34:13;;;;;;;24.17;14.02;;;11.00;99.90;;;;;;5070095;28;20371;-57
2024/02/12 11:36:40;;;;;;;21.13;12.82;;;10.90;99.90;;;;;;5065724;28;20012;-57
2024/02/12 11:39:09;;;;;;;22.05;12.63;;;11.20;99.90;;;;;;5074949;28;20458;-57
2024/02/12 11:41:38;;;;;;;26.42;12.93;;;11.40;99.90;;;;;;5062295;28;20024;-57
2024/02/12 11:44:05;;;;;;;18.52;12.18;;;11.60;99.90;;;;;;5067535;28;20025;-57
2024/02/12 11:46:38;;;;;;;21.60;13.30;;;11.60;99.90;;;;;;5070881;28;20024;-57
2024/02/12 11:49:07;;;;;;;20.42;12.48;;;12.00;99.90;;;;;;5070271;28;20028;-58
2024/02/12 11:51:38;;;;;;;15.73;11.50;;;12.10;99.90;;;;;;5064765;28;20029;-58
2024/02/12 11:54:05;;;;;;;18.50;11.65;;;12.30;99.90;;;;;;5071685;28;20062;-57
2024/02/12 11:56:32;;;;;;;20.67;12.18;;;12.30;99.90;;;;;;5070266;28;20009;-58
2024/02/12 11:58:58;;;;;;;18.95;12.32;;;12.30;99.90;;;;;;5070717;28;20393;-57
2024/02/12 12:01:26;;;;;;;17.77;12.20;;;12.10;99.90;;;;;;5069133;28;20150;-57
2024/02/12 12:03:54;;;;;;;18.23;12.02;;;11.70;99.90;;;;;;5069052;28;20208;-57
2024/02/12 12:06:22;;;;;;;18.02;11.85;;;11.50;99.90;;;;;;5070034;28;20054;-59
2024/02/12 12:08:48;;;;;;;19.40;12.68;;;11.40;99.90;;;;;;5067863;28;20048;-57
2024/02/12 12:11:23;;;;;;;22.25;13.68;;;11.20;99.90;;;;;;5070049;28;20105;-59
2024/02/12 12:14:02;;;;;;;23.48;13.30;;;11.10;99.90;;;;;;5069290;28;20044;-56
2024/02/12 12:16:28;;;;;;;19.13;12.30;;;11.10;99.90;;;;;;5071611;28;20108;-57
2024/02/12 12:18:54;;;;;;;19.50;12.35;;;11.00;99.90;;;;;;5070461;28;20024;-57
2024/02/12 12:21:20;;;;;;;22.02;12.57;;;11.00;99.90;;;;;;5071367;28;20073;-57
2024/02/12 12:23:49;;;;;;;20.23;13.60;;;11.00;99.90;;;;;;5069155;28;20477;-57
2024/02/12 12:26:15;;;;;;;20.52;12.93;;;11.00;99.90;;;;;;5073136;28;20081;-57
2024/02/12 12:28:41;;;;;;;20.88;12.73;;;10.90;99.90;;;;;;5069560;28;20502;-57
2024/02/12 12:31:07;;;;;;;19.17;12.48;;;10.90;99.90;;;;;;5069327;28;20023;-57
2024/02/12 12:33:33;;;;;;;22.08;12.52;;;10.80;99.90;;;;;;5066940;28;20044;-57
2024/02/12 12:35:59;;;;;;;19.83;12.25;;;10.80;99.90;;;;;;5070620;28;20025;-57
2024/02/12 12:38:24;;;;;;;20.15;11.07;;;10.80;99.90;;;;;;5070580;28;20020;-57
2024/02/12 12:40:50;;;;;;;17.55;11.00;;;10.80;99.90;;;;;;5069468;28;20639;-57
2024/02/12 12:43:18;;;;;;;18.35;10.57;;;11.00;99.90;;;;;;5068690;28;20048;-57
2024/02/12 12:45:45;;;;;;;16.30;11.48;;;11.20;99.90;;;;;;5071176;28;20424;-57
2024/02/12 12:48:11;;;;;;;15.48;10.68;;;11.80;99.90;;;;;;5070672;28;20104;-57
2024/02/12 12:50:40;;;;;;;16.45;9.88;;;12.00;99.90;;;;;;5070742;28;20028;-57